sensor_id;sensor_type;location;lat;lon;timestamp;temperature;humidity
69418;DHT22;56610;48.872;2.400;2023-07-24T00:01:31;22.60;99.90
69418;DHT22;56610;48.872;2.400;2023-07-24T00:03:56;22.70;99.90
69418;DHT22;56610;48.872;2.400;2023-07-24T00:06:23;22.70;99.90
69418;DHT22;56610;48.872;2.400;2023-07-24T00:08:49;22.60;99.90
69418;DHT22;56610;48.872;2.400;2023-07-24T00:11:14;22.70;99.90
69418;DHT22;56610;48.872;2.400;2023-07-24T00:13:40;22.60;99.90
69418;DHT22;56610;48.872;2.400;2023-07-24T00:16:08;22.80;99.90
69418;DHT22;56610;48.872;2.400;2023-07-24T00:18:34;22.90;99.90
69418;DHT22;56610;48.872;2.400;2023-07-24T00:21:00;22.80;99.90
69418;DHT22;56610;48.872;2.400;2023-07-24T00:23:25;23.00;99.90
69418;DHT22;56610;48.872;2.400;2023-07-24T00:25:51;22.90;99.90
69418;DHT22;56610;48.872;2.400;2023-07-24T00:28:16;22.80;99.90
69418;DHT22;56610;48.872;2.400;2023-07-24T00:30:42;22.80;99.90
69418;DHT22;56610;48.872;2.400;2023-07-24T00:33:08;22.70;99.90
69418;DHT22;56610;48.872;2.400;2023-07-24T00:35:34;22.80;99.90
69418;DHT22;56610;48.872;2.400;2023-07-24T00:37:59;22.90;99.90
69418;DHT22;56610;48.872;2.400;2023-07-24T00:40:25;23.00;99.90
69418;DHT22;56610;48.872;2.400;2023-07-24T00:42:50;22.90;99.90
69418;DHT22;56610;48.872;2.400;2023-07-24T00:45:16;22.80;99.90
69418;DHT22;56610;48.872;2.400;2023-07-24T00:47:42;22.80;99.90
69418;DHT22;56610;48.872;2.400;2023-07-24T00:50:09;23.00;99.90
69418;DHT22;56610;48.872;2.400;2023-07-24T00:52:35;23.00;99.90
69418;DHT22;56610;48.872;2.400;2023-07-24T00:55:01;23.10;99.90
69418;DHT22;56610;48.872;2.400;2023-07-24T00:57:27;23.30;99.90
69418;DHT22;56610;48.872;2.400;2023-07-24T00:59:53;23.30;99.90
69418;DHT22;56610;48.872;2.400;2023-07-24T01:02:19;23.50;99.90
69418;DHT22;56610;48.872;2.400;2023-07-24T01:04:45;23.60;99.90
69418;DHT22;56610;48.872;2.400;2023-07-24T01:07:11;23.70;99.90
69418;DHT22;56610;48.872;2.400;2023-07-24T01:09:37;23.90;99.90
69418;DHT22;56610;48.872;2.400;2023-07-24T01:14:47;23.50;99.90
69418;DHT22;56610;48.872;2.400;2023-07-24T01:17:16;23.50;99.90
69418;DHT22;56610;48.872;2.400;2023-07-24T01:19:47;23.50;99.90
69418;DHT22;56610;48.872;2.400;2023-07-24T01:27:26;23.40;99.90
69418;DHT22;56610;48.872;2.400;2023-07-24T01:29:51;23.30;99.90
69418;DHT22;56610;48.872;2.400;2023-07-24T01:32:18;23.20;99.90
69418;DHT22;56610;48.872;2.400;2023-07-24T01:34:44;23.30;99.90
69418;DHT22;56610;48.872;2.400;2023-07-24T01:37:12;23.50;99.90
69418;DHT22;56610;48.872;2.400;2023-07-24T01:39:38;23.50;99.90
69418;DHT22;56610;48.872;2.400;2023-07-24T01:42:05;23.70;99.90
69418;DHT22;56610;48.872;2.400;2023-07-24T01:44:31;23.50;99.90
69418;DHT22;56610;48.872;2.400;2023-07-24T01:46:57;23.40;99.90
69418;DHT22;56610;48.872;2.400;2023-07-24T01:49:22;23.20;99.90
69418;DHT22;56610;48.872;2.400;2023-07-24T01:51:48;23.10;99.90
69418;DHT22;56610;48.872;2.400;2023-07-24T01:54:13;23.00;99.90
69418;DHT22;56610;48.872;2.400;2023-07-24T01:56:39;23.00;99.90
69418;DHT22;56610;48.872;2.400;2023-07-24T01:59:05;22.90;99.90
69418;DHT22;56610;48.872;2.400;2023-07-24T02:01:31;22.90;99.90
69418;DHT22;56610;48.872;2.400;2023-07-24T02:03:56;23.10;99.90
69418;DHT22;56610;48.872;2.400;2023-07-24T02:06:22;23.00;99.90
69418;DHT22;56610;48.872;2.400;2023-07-24T02:11:33;23.00;99.90
69418;DHT22;56610;48.872;2.400;2023-07-24T02:13:59;23.20;99.90
69418;DHT22;56610;48.872;2.400;2023-07-24T02:16:26;23.30;99.90
69418;DHT22;56610;48.872;2.400;2023-07-24T02:18:52;23.20;99.90
69418;DHT22;56610;48.872;2.400;2023-07-24T02:21:18;23.30;99.90
69418;DHT22;56610;48.872;2.400;2023-07-24T02:23:43;23.20;99.90
69418;DHT22;56610;48.872;2.400;2023-07-24T02:26:09;23.10;99.90
69418;DHT22;56610;48.872;2.400;2023-07-24T02:28:34;23.20;99.90
69418;DHT22;56610;48.872;2.400;2023-07-24T02:31:00;23.00;99.90
69418;DHT22;56610;48.872;2.400;2023-07-24T02:33:26;22.90;99.90
69418;DHT22;56610;48.872;2.400;2023-07-24T02:35:52;22.80;99.90
69418;DHT22;56610;48.872;2.400;2023-07-24T02:38:18;22.80;99.90
69418;DHT22;56610;48.872;2.400;2023-07-24T02:40:44;22.60;99.90
69418;DHT22;56610;48.872;2.400;2023-07-24T02:43:10;22.30;99.90
69418;DHT22;56610;48.872;2.400;2023-07-24T02:45:39;22.10;99.90
69418;DHT22;56610;48.872;2.400;2023-07-24T02:48:05;22.00;99.90
69418;DHT22;56610;48.872;2.400;2023-07-24T02:50:32;22.00;99.90
69418;DHT22;56610;48.872;2.400;2023-07-24T02:52:57;22.10;99.90
69418;DHT22;56610;48.872;2.400;2023-07-24T02:55:23;22.10;99.90
69418;DHT22;56610;48.872;2.400;2023-07-24T02:57:48;21.90;99.90
69418;DHT22;56610;48.872;2.400;2023-07-24T03:00:14;22.00;99.90
69418;DHT22;56610;48.872;2.400;2023-07-24T03:02:40;22.00;99.90
69418;DHT22;56610;48.872;2.400;2023-07-24T03:05:06;22.10;99.90
69418;DHT22;56610;48.872;2.400;2023-07-24T03:07:32;22.20;99.90
69418;DHT22;56610;48.872;2.400;2023-07-24T03:09:58;22.20;99.90
69418;DHT22;56610;48.872;2.400;2023-07-24T03:12:24;22.20;99.90
69418;DHT22;56610;48.872;2.400;2023-07-24T03:14:49;22.10;99.90
69418;DHT22;56610;48.872;2.400;2023-07-24T03:17:15;22.00;99.90
69418;DHT22;56610;48.872;2.400;2023-07-24T03:19:41;22.10;99.90
69418;DHT22;56610;48.872;2.400;2023-07-24T03:22:07;21.90;99.90
69418;DHT22;56610;48.872;2.400;2023-07-24T03:24:33;21.80;99.90
69418;DHT22;56610;48.872;2.400;2023-07-24T03:26:59;21.70;99.90
69418;DHT22;56610;48.872;2.400;2023-07-24T03:29:28;21.50;99.90
69418;DHT22;56610;48.872;2.400;2023-07-24T03:31:53;21.50;99.90
69418;DHT22;56610;48.872;2.400;2023-07-24T03:34:19;21.50;99.90
69418;DHT22;56610;48.872;2.400;2023-07-24T03:36:44;21.60;99.90
69418;DHT22;56610;48.872;2.400;2023-07-24T03:39:11;21.60;99.90
69418;DHT22;56610;48.872;2.400;2023-07-24T03:41:41;21.50;99.90
69418;DHT22;56610;48.872;2.400;2023-07-24T03:44:07;21.40;99.90
69418;DHT22;56610;48.872;2.400;2023-07-24T03:46:33;21.40;99.90
69418;DHT22;56610;48.872;2.400;2023-07-24T03:48:58;21.30;99.90
69418;DHT22;56610;48.872;2.400;2023-07-24T03:51:24;21.20;99.90
69418;DHT22;56610;48.872;2.400;2023-07-24T03:53:49;21.20;99.90
69418;DHT22;56610;48.872;2.400;2023-07-24T03:56:15;21.20;99.90
69418;DHT22;56610;48.872;2.400;2023-07-24T03:58:41;21.30;99.90
69418;DHT22;56610;48.872;2.400;2023-07-24T04:01:10;21.30;99.90
69418;DHT22;56610;48.872;2.400;2023-07-24T04:03:36;21.30;99.90
69418;DHT22;56610;48.872;2.400;2023-07-24T04:06:01;21.30;99.90
69418;DHT22;56610;48.872;2.400;2023-07-24T04:08:27;21.30;99.90
69418;DHT22;56610;48.872;2.400;2023-07-24T04:10:52;21.30;99.90
69418;DHT22;56610;48.872;2.400;2023-07-24T04:13:18;21.40;99.90
69418;DHT22;56610;48.872;2.400;2023-07-24T04:15:44;21.30;99.90
69418;DHT22;56610;48.872;2.400;2023-07-24T04:18:10;21.30;99.90
69418;DHT22;56610;48.872;2.400;2023-07-24T04:20:36;21.40;99.90
69418;DHT22;56610;48.872;2.400;2023-07-24T04:23:01;21.40;99.90
69418;DHT22;56610;48.872;2.400;2023-07-24T04:25:27;21.30;99.90
69418;DHT22;56610;48.872;2.400;2023-07-24T04:27:52;21.30;99.90
69418;DHT22;56610;48.872;2.400;2023-07-24T04:30:18;21.40;99.90
69418;DHT22;56610;48.872;2.400;2023-07-24T04:32:43;21.40;99.90
69418;DHT22;56610;48.872;2.400;2023-07-24T04:35:09;21.40;99.90
69418;DHT22;56610;48.872;2.400;2023-07-24T04:37:35;21.50;99.90
69418;DHT22;56610;48.872;2.400;2023-07-24T04:40:00;21.40;99.90
69418;DHT22;56610;48.872;2.400;2023-07-24T04:42:26;21.50;99.90
69418;DHT22;56610;48.872;2.400;2023-07-24T04:44:51;21.40;99.90
69418;DHT22;56610;48.872;2.400;2023-07-24T04:47:17;21.40;99.90
69418;DHT22;56610;48.872;2.400;2023-07-24T04:49:43;21.40;99.90
69418;DHT22;56610;48.872;2.400;2023-07-24T04:52:08;21.30;99.90
69418;DHT22;56610;48.872;2.400;2023-07-24T04:54:34;21.40;99.90
69418;DHT22;56610;48.872;2.400;2023-07-24T04:56:59;21.30;99.90
69418;DHT22;56610;48.872;2.400;2023-07-24T04:59:25;21.30;99.90
69418;DHT22;56610;48.872;2.400;2023-07-24T05:01:50;21.30;99.90
69418;DHT22;56610;48.872;2.400;2023-07-24T05:04:16;21.30;99.90
69418;DHT22;56610;48.872;2.400;2023-07-24T05:06:42;21.50;99.90
69418;DHT22;56610;48.872;2.400;2023-07-24T05:09:07;21.50;99.90
69418;DHT22;56610;48.872;2.400;2023-07-24T05:11:33;21.40;99.90
69418;DHT22;56610;48.872;2.400;2023-07-24T05:13:58;21.50;99.90
69418;DHT22;56610;48.872;2.400;2023-07-24T05:16:24;21.40;99.90
69418;DHT22;56610;48.872;2.400;2023-07-24T05:18:49;21.50;99.90
69418;DHT22;56610;48.872;2.400;2023-07-24T05:21:15;21.40;99.90
69418;DHT22;56610;48.872;2.400;2023-07-24T05:23:41;21.40;99.90
69418;DHT22;56610;48.872;2.400;2023-07-24T05:26:06;21.50;99.90
69418;DHT22;56610;48.872;2.400;2023-07-24T05:28:32;21.60;99.90
69418;DHT22;56610;48.872;2.400;2023-07-24T05:31:04;21.60;99.90
69418;DHT22;56610;48.872;2.400;2023-07-24T05:33:31;21.50;99.90
69418;DHT22;56610;48.872;2.400;2023-07-24T05:36:01;21.50;99.90
69418;DHT22;56610;48.872;2.400;2023-07-24T05:38:26;21.50;99.90
69418;DHT22;56610;48.872;2.400;2023-07-24T05:40:59;21.50;99.90
69418;DHT22;56610;48.872;2.400;2023-07-24T05:43:26;21.50;99.90
69418;DHT22;56610;48.872;2.400;2023-07-24T05:45:53;21.50;99.90
69418;DHT22;56610;48.872;2.400;2023-07-24T05:48:19;21.50;99.90
69418;DHT22;56610;48.872;2.400;2023-07-24T05:50:44;21.50;99.90
69418;DHT22;56610;48.872;2.400;2023-07-24T05:53:10;21.50;99.90
69418;DHT22;56610;48.872;2.400;2023-07-24T05:55:36;21.60;99.90
69418;DHT22;56610;48.872;2.400;2023-07-24T05:58:01;21.60;99.90
69418;DHT22;56610;48.872;2.400;2023-07-24T06:00:27;21.60;99.90
69418;DHT22;56610;48.872;2.400;2023-07-24T06:02:53;21.70;99.90
69418;DHT22;56610;48.872;2.400;2023-07-24T06:05:19;21.60;99.90
69418;DHT22;56610;48.872;2.400;2023-07-24T06:07:45;21.60;99.90
69418;DHT22;56610;48.872;2.400;2023-07-24T06:10:11;21.60;99.90
69418;DHT22;56610;48.872;2.400;2023-07-24T06:12:37;21.60;99.90
69418;DHT22;56610;48.872;2.400;2023-07-24T06:15:03;21.70;99.90
69418;DHT22;56610;48.872;2.400;2023-07-24T06:17:28;21.70;99.90
69418;DHT22;56610;48.872;2.400;2023-07-24T06:19:54;21.70;99.90
69418;DHT22;56610;48.872;2.400;2023-07-24T06:22:20;21.70;99.90
69418;DHT22;56610;48.872;2.400;2023-07-24T06:24:45;21.70;99.90
69418;DHT22;56610;48.872;2.400;2023-07-24T06:27:11;21.70;99.90
69418;DHT22;56610;48.872;2.400;2023-07-24T06:29:36;21.70;99.90
69418;DHT22;56610;48.872;2.400;2023-07-24T06:32:02;21.50;99.90
69418;DHT22;56610;48.872;2.400;2023-07-24T06:34:28;21.60;99.90
69418;DHT22;56610;48.872;2.400;2023-07-24T06:36:54;21.50;99.90
69418;DHT22;56610;48.872;2.400;2023-07-24T06:39:19;21.60;99.90
69418;DHT22;56610;48.872;2.400;2023-07-24T06:41:45;21.50;99.90
69418;DHT22;56610;48.872;2.400;2023-07-24T06:44:11;21.50;99.90
69418;DHT22;56610;48.872;2.400;2023-07-24T06:46:37;21.60;99.90
69418;DHT22;56610;48.872;2.400;2023-07-24T06:49:02;21.60;99.90
69418;DHT22;56610;48.872;2.400;2023-07-24T06:51:28;21.70;99.90
69418;DHT22;56610;48.872;2.400;2023-07-24T06:53:53;21.70;99.90
69418;DHT22;56610;48.872;2.400;2023-07-24T06:56:19;21.70;99.90
69418;DHT22;56610;48.872;2.400;2023-07-24T06:58:45;21.80;99.90
69418;DHT22;56610;48.872;2.400;2023-07-24T07:01:10;21.70;99.90
69418;DHT22;56610;48.872;2.400;2023-07-24T07:03:36;21.90;99.90
69418;DHT22;56610;48.872;2.400;2023-07-24T07:06:02;21.90;99.90
69418;DHT22;56610;48.872;2.400;2023-07-24T07:08:31;21.90;99.90
69418;DHT22;56610;48.872;2.400;2023-07-24T07:10:58;21.90;99.90
69418;DHT22;56610;48.872;2.400;2023-07-24T07:13:23;21.90;99.90
69418;DHT22;56610;48.872;2.400;2023-07-24T07:15:49;21.90;99.90
69418;DHT22;56610;48.872;2.400;2023-07-24T07:18:14;21.90;99.90
69418;DHT22;56610;48.872;2.400;2023-07-24T07:20:47;21.80;99.90
69418;DHT22;56610;48.872;2.400;2023-07-24T07:23:13;21.90;99.90
69418;DHT22;56610;48.872;2.400;2023-07-24T07:25:39;21.90;99.90
69418;DHT22;56610;48.872;2.400;2023-07-24T07:28:04;21.90;99.90
69418;DHT22;56610;48.872;2.400;2023-07-24T07:30:30;21.90;99.90
69418;DHT22;56610;48.872;2.400;2023-07-24T07:32:55;21.90;99.90
69418;DHT22;56610;48.872;2.400;2023-07-24T07:35:21;22.00;99.90
69418;DHT22;56610;48.872;2.400;2023-07-24T07:37:46;22.00;99.90
69418;DHT22;56610;48.872;2.400;2023-07-24T07:40:12;22.00;99.90
69418;DHT22;56610;48.872;2.400;2023-07-24T07:42:38;22.10;99.90
69418;DHT22;56610;48.872;2.400;2023-07-24T07:45:04;22.00;99.90
69418;DHT22;56610;48.872;2.400;2023-07-24T07:47:29;22.10;99.90
69418;DHT22;56610;48.872;2.400;2023-07-24T07:49:55;21.90;99.90
69418;DHT22;56610;48.872;2.400;2023-07-24T07:52:21;22.00;99.90
69418;DHT22;56610;48.872;2.400;2023-07-24T07:54:48;22.00;99.90
69418;DHT22;56610;48.872;2.400;2023-07-24T07:57:14;22.10;99.90
69418;DHT22;56610;48.872;2.400;2023-07-24T07:59:39;22.20;99.90
69418;DHT22;56610;48.872;2.400;2023-07-24T08:02:05;22.20;99.90
69418;DHT22;56610;48.872;2.400;2023-07-24T08:04:31;22.20;99.90
69418;DHT22;56610;48.872;2.400;2023-07-24T08:06:57;22.30;99.90
69418;DHT22;56610;48.872;2.400;2023-07-24T08:09:23;22.30;99.90
69418;DHT22;56610;48.872;2.400;2023-07-24T08:11:49;22.50;99.90
69418;DHT22;56610;48.872;2.400;2023-07-24T08:14:16;22.40;99.90
69418;DHT22;56610;48.872;2.400;2023-07-24T08:16:41;22.50;99.90
69418;DHT22;56610;48.872;2.400;2023-07-24T08:19:07;22.60;99.90
69418;DHT22;56610;48.872;2.400;2023-07-24T08:21:32;22.60;99.90
69418;DHT22;56610;48.872;2.400;2023-07-24T08:23:58;22.60;99.90
69418;DHT22;56610;48.872;2.400;2023-07-24T08:26:25;22.60;99.90
69418;DHT22;56610;48.872;2.400;2023-07-24T08:28:52;22.50;99.90
69418;DHT22;56610;48.872;2.400;2023-07-24T08:31:17;22.60;99.90
69418;DHT22;56610;48.872;2.400;2023-07-24T08:33:43;22.60;99.90
69418;DHT22;56610;48.872;2.400;2023-07-24T08:36:09;22.60;99.90
69418;DHT22;56610;48.872;2.400;2023-07-24T08:38:36;22.60;99.90
69418;DHT22;56610;48.872;2.400;2023-07-24T08:41:06;22.60;99.90
69418;DHT22;56610;48.872;2.400;2023-07-24T08:43:35;22.50;99.90
69418;DHT22;56610;48.872;2.400;2023-07-24T08:48:47;22.40;99.90
69418;DHT22;56610;48.872;2.400;2023-07-24T08:51:15;22.50;99.90
69418;DHT22;56610;48.872;2.400;2023-07-24T08:53:59;22.50;99.90
69418;DHT22;56610;48.872;2.400;2023-07-24T08:56:26;22.40;99.90
69418;DHT22;56610;48.872;2.400;2023-07-24T08:58:51;22.30;99.90
69418;DHT22;56610;48.872;2.400;2023-07-24T09:01:17;22.30;99.90
69418;DHT22;56610;48.872;2.400;2023-07-24T09:03:42;22.40;99.90
69418;DHT22;56610;48.872;2.400;2023-07-24T09:06:08;22.40;99.90
69418;DHT22;56610;48.872;2.400;2023-07-24T09:08:36;22.50;99.90
69418;DHT22;56610;48.872;2.400;2023-07-24T09:11:02;22.60;99.90
69418;DHT22;56610;48.872;2.400;2023-07-24T09:13:29;22.60;99.90
69418;DHT22;56610;48.872;2.400;2023-07-24T09:15:55;22.70;99.90
69418;DHT22;56610;48.872;2.400;2023-07-24T09:18:21;22.70;99.90
69418;DHT22;56610;48.872;2.400;2023-07-24T09:20:48;22.80;99.90
69418;DHT22;56610;48.872;2.400;2023-07-24T09:23:14;22.90;99.90
69418;DHT22;56610;48.872;2.400;2023-07-24T09:25:42;22.90;99.90
69418;DHT22;56610;48.872;2.400;2023-07-24T09:28:15;23.00;99.90
69418;DHT22;56610;48.872;2.400;2023-07-24T09:30:41;23.20;99.90
69418;DHT22;56610;48.872;2.400;2023-07-24T09:33:07;23.20;99.90
69418;DHT22;56610;48.872;2.400;2023-07-24T09:35:33;23.20;99.90
69418;DHT22;56610;48.872;2.400;2023-07-24T09:38:10;23.30;99.90
69418;DHT22;56610;48.872;2.400;2023-07-24T09:40:40;23.30;99.90
69418;DHT22;56610;48.872;2.400;2023-07-24T09:43:23;23.20;99.90
69418;DHT22;56610;48.872;2.400;2023-07-24T09:45:50;23.30;99.90
69418;DHT22;56610;48.872;2.400;2023-07-24T09:48:17;23.40;99.90
69418;DHT22;56610;48.872;2.400;2023-07-24T09:50:45;23.30;99.90
69418;DHT22;56610;48.872;2.400;2023-07-24T09:55:59;23.20;99.90
69418;DHT22;56610;48.872;2.400;2023-07-24T09:58:25;23.10;99.90
69418;DHT22;56610;48.872;2.400;2023-07-24T10:00:52;23.10;99.90
69418;DHT22;56610;48.872;2.400;2023-07-24T10:03:18;23.30;99.90
69418;DHT22;56610;48.872;2.400;2023-07-24T10:05:46;23.30;99.90
69418;DHT22;56610;48.872;2.400;2023-07-24T10:08:12;23.40;99.90
69418;DHT22;56610;48.872;2.400;2023-07-24T10:10:38;23.40;99.90
69418;DHT22;56610;48.872;2.400;2023-07-24T10:13:05;23.50;99.90
69418;DHT22;56610;48.872;2.400;2023-07-24T10:15:31;23.70;99.90
69418;DHT22;56610;48.872;2.400;2023-07-24T10:18:04;23.80;99.90
69418;DHT22;56610;48.872;2.400;2023-07-24T10:20:40;23.80;99.90
69418;DHT22;56610;48.872;2.400;2023-07-24T10:23:08;23.80;99.90
69418;DHT22;56610;48.872;2.400;2023-07-24T10:25:35;23.80;99.90
69418;DHT22;56610;48.872;2.400;2023-07-24T10:28:02;23.90;99.90
69418;DHT22;56610;48.872;2.400;2023-07-24T10:30:31;23.90;99.90
69418;DHT22;56610;48.872;2.400;2023-07-24T10:35:45;24.10;99.90
69418;DHT22;56610;48.872;2.400;2023-07-24T10:38:13;24.20;99.90
69418;DHT22;56610;48.872;2.400;2023-07-24T10:40:45;24.20;99.90
69418;DHT22;56610;48.872;2.400;2023-07-24T10:43:13;24.20;99.90
69418;DHT22;56610;48.872;2.400;2023-07-24T10:45:40;24.10;99.90
69418;DHT22;56610;48.872;2.400;2023-07-24T10:48:06;24.10;99.90
69418;DHT22;56610;48.872;2.400;2023-07-24T10:50:39;24.10;99.90
69418;DHT22;56610;48.872;2.400;2023-07-24T10:53:05;24.20;99.90
69418;DHT22;56610;48.872;2.400;2023-07-24T10:55:30;24.20;99.90
69418;DHT22;56610;48.872;2.400;2023-07-24T10:57:56;24.20;99.90
69418;DHT22;56610;48.872;2.400;2023-07-24T11:00:21;24.10;99.90
69418;DHT22;56610;48.872;2.400;2023-07-24T11:02:47;24.00;99.90
69418;DHT22;56610;48.872;2.400;2023-07-24T11:05:13;24.10;99.90
69418;DHT22;56610;48.872;2.400;2023-07-24T11:07:39;24.00;99.90
69418;DHT22;56610;48.872;2.400;2023-07-24T11:10:18;24.00;99.90
69418;DHT22;56610;48.872;2.400;2023-07-24T11:12:43;24.10;99.90
69418;DHT22;56610;48.872;2.400;2023-07-24T11:15:10;23.90;99.90
69418;DHT22;56610;48.872;2.400;2023-07-24T11:17:37;24.10;99.90
69418;DHT22;56610;48.872;2.400;2023-07-24T11:20:15;24.10;99.90
69418;DHT22;56610;48.872;2.400;2023-07-24T11:22:43;24.20;99.90
69418;DHT22;56610;48.872;2.400;2023-07-24T11:25:12;24.20;99.90
69418;DHT22;56610;48.872;2.400;2023-07-24T11:27:40;24.30;99.90
69418;DHT22;56610;48.872;2.400;2023-07-24T11:30:07;24.50;99.90
69418;DHT22;56610;48.872;2.400;2023-07-24T11:32:33;24.50;99.90
69418;DHT22;56610;48.872;2.400;2023-07-24T11:35:00;24.40;99.90
69418;DHT22;56610;48.872;2.400;2023-07-24T11:37:25;24.50;99.90
69418;DHT22;56610;48.872;2.400;2023-07-24T11:40:02;24.50;99.90
69418;DHT22;56610;48.872;2.400;2023-07-24T11:42:37;24.60;99.90
69418;DHT22;56610;48.872;2.400;2023-07-24T11:45:03;24.80;99.90
69418;DHT22;56610;48.872;2.400;2023-07-24T11:47:28;24.70;99.90
69418;DHT22;56610;48.872;2.400;2023-07-24T11:50:01;24.70;99.90
69418;DHT22;56610;48.872;2.400;2023-07-24T11:52:41;24.70;99.90
69418;DHT22;56610;48.872;2.400;2023-07-24T11:55:12;24.70;99.90
69418;DHT22;56610;48.872;2.400;2023-07-24T11:57:38;24.80;99.90
69418;DHT22;56610;48.872;2.400;2023-07-24T12:00:05;24.90;99.90
69418;DHT22;56610;48.872;2.400;2023-07-24T12:02:32;25.00;99.90
69418;DHT22;56610;48.872;2.400;2023-07-24T12:04:59;25.20;99.90
69418;DHT22;56610;48.872;2.400;2023-07-24T12:07:30;25.30;99.90
69418;DHT22;56610;48.872;2.400;2023-07-24T12:09:56;25.50;99.90
69418;DHT22;56610;48.872;2.400;2023-07-24T12:12:21;25.40;99.90
69418;DHT22;56610;48.872;2.400;2023-07-24T12:14:47;25.40;99.90
69418;DHT22;56610;48.872;2.400;2023-07-24T12:17:18;25.50;99.90
69418;DHT22;56610;48.872;2.400;2023-07-24T12:19:43;25.40;99.90
69418;DHT22;56610;48.872;2.400;2023-07-24T12:22:09;25.20;99.90
69418;DHT22;56610;48.872;2.400;2023-07-24T12:24:35;25.10;99.90
69418;DHT22;56610;48.872;2.400;2023-07-24T12:27:00;25.20;99.90
69418;DHT22;56610;48.872;2.400;2023-07-24T12:29:26;25.10;99.90
69418;DHT22;56610;48.872;2.400;2023-07-24T12:31:51;25.10;99.90
69418;DHT22;56610;48.872;2.400;2023-07-24T12:34:17;25.00;99.90
69418;DHT22;56610;48.872;2.400;2023-07-24T12:36:42;25.00;99.90
69418;DHT22;56610;48.872;2.400;2023-07-24T12:39:08;25.00;99.90
69418;DHT22;56610;48.872;2.400;2023-07-24T12:41:34;25.00;99.90
69418;DHT22;56610;48.872;2.400;2023-07-24T12:44:00;25.00;99.90
69418;DHT22;56610;48.872;2.400;2023-07-24T12:46:25;25.10;99.90
69418;DHT22;56610;48.872;2.400;2023-07-24T12:48:51;25.00;99.90
69418;DHT22;56610;48.872;2.400;2023-07-24T12:51:16;25.10;99.90
69418;DHT22;56610;48.872;2.400;2023-07-24T12:53:42;25.00;99.90
69418;DHT22;56610;48.872;2.400;2023-07-24T12:56:07;25.10;99.90
69418;DHT22;56610;48.872;2.400;2023-07-24T12:58:33;25.10;99.90
69418;DHT22;56610;48.872;2.400;2023-07-24T13:01:01;25.10;99.90
69418;DHT22;56610;48.872;2.400;2023-07-24T13:03:27;25.20;99.90
69418;DHT22;56610;48.872;2.400;2023-07-24T13:05:52;25.10;99.90
69418;DHT22;56610;48.872;2.400;2023-07-24T13:08:18;25.10;99.90
69418;DHT22;56610;48.872;2.400;2023-07-24T13:10:47;25.10;99.90
69418;DHT22;56610;48.872;2.400;2023-07-24T13:13:12;24.80;99.90
69418;DHT22;56610;48.872;2.400;2023-07-24T13:15:38;24.70;99.90
69418;DHT22;56610;48.872;2.400;2023-07-24T13:18:04;24.40;99.90
69418;DHT22;56610;48.872;2.400;2023-07-24T13:20:29;24.30;99.90
69418;DHT22;56610;48.872;2.400;2023-07-24T13:22:55;24.10;99.90
69418;DHT22;56610;48.872;2.400;2023-07-24T13:25:20;23.90;99.90
69418;DHT22;56610;48.872;2.400;2023-07-24T13:27:46;23.80;99.90
69418;DHT22;56610;48.872;2.400;2023-07-24T13:30:11;23.60;99.90
69418;DHT22;56610;48.872;2.400;2023-07-24T13:32:37;23.50;99.90
69418;DHT22;56610;48.872;2.400;2023-07-24T13:35:03;23.40;99.90
69418;DHT22;56610;48.872;2.400;2023-07-24T13:37:29;23.30;99.90
69418;DHT22;56610;48.872;2.400;2023-07-24T13:39:55;23.30;99.90
69418;DHT22;56610;48.872;2.400;2023-07-24T13:42:20;23.30;99.90
69418;DHT22;56610;48.872;2.400;2023-07-24T13:44:46;23.40;99.90
69418;DHT22;56610;48.872;2.400;2023-07-24T13:47:12;23.30;99.90
69418;DHT22;56610;48.872;2.400;2023-07-24T13:49:37;23.30;99.90
69418;DHT22;56610;48.872;2.400;2023-07-24T13:52:03;23.50;99.90
69418;DHT22;56610;48.872;2.400;2023-07-24T13:54:28;23.70;99.90
69418;DHT22;56610;48.872;2.400;2023-07-24T13:56:54;24.00;99.90
69418;DHT22;56610;48.872;2.400;2023-07-24T13:59:19;24.30;99.90
69418;DHT22;56610;48.872;2.400;2023-07-24T14:01:45;24.30;99.90
69418;DHT22;56610;48.872;2.400;2023-07-24T14:04:11;24.20;99.90
69418;DHT22;56610;48.872;2.400;2023-07-24T14:06:37;24.30;99.90
69418;DHT22;56610;48.872;2.400;2023-07-24T14:09:03;24.40;99.90
69418;DHT22;56610;48.872;2.400;2023-07-24T14:11:28;24.50;99.90
69418;DHT22;56610;48.872;2.400;2023-07-24T14:13:54;24.60;99.90
69418;DHT22;56610;48.872;2.400;2023-07-24T14:16:20;24.90;99.90
69418;DHT22;56610;48.872;2.400;2023-07-24T14:18:45;25.10;99.90
69418;DHT22;56610;48.872;2.400;2023-07-24T14:21:11;25.20;99.90
69418;DHT22;56610;48.872;2.400;2023-07-24T14:23:36;25.30;99.90
69418;DHT22;56610;48.872;2.400;2023-07-24T14:26:02;25.20;99.90
69418;DHT22;56610;48.872;2.400;2023-07-24T14:28:28;25.20;99.90
69418;DHT22;56610;48.872;2.400;2023-07-24T14:30:53;25.10;99.90
69418;DHT22;56610;48.872;2.400;2023-07-24T14:33:19;25.20;99.90
69418;DHT22;56610;48.872;2.400;2023-07-24T14:35:44;25.30;99.90
69418;DHT22;56610;48.872;2.400;2023-07-24T14:38:10;25.40;99.90
69418;DHT22;56610;48.872;2.400;2023-07-24T14:40:36;25.40;99.90
69418;DHT22;56610;48.872;2.400;2023-07-24T14:43:01;25.60;99.90
69418;DHT22;56610;48.872;2.400;2023-07-24T14:45:27;25.80;99.90
69418;DHT22;56610;48.872;2.400;2023-07-24T14:47:52;25.90;99.90
69418;DHT22;56610;48.872;2.400;2023-07-24T14:50:18;26.10;99.90
69418;DHT22;56610;48.872;2.400;2023-07-24T14:52:43;26.10;99.90
69418;DHT22;56610;48.872;2.400;2023-07-24T14:55:09;26.20;99.90
69418;DHT22;56610;48.872;2.400;2023-07-24T14:57:35;26.20;99.90
69418;DHT22;56610;48.872;2.400;2023-07-24T15:00:01;26.20;99.90
69418;DHT22;56610;48.872;2.400;2023-07-24T15:02:27;26.20;99.90
69418;DHT22;56610;48.872;2.400;2023-07-24T15:04:53;26.10;99.90
69418;DHT22;56610;48.872;2.400;2023-07-24T15:07:18;26.20;99.90
69418;DHT22;56610;48.872;2.400;2023-07-24T15:09:44;26.30;99.90
69418;DHT22;56610;48.872;2.400;2023-07-24T15:12:09;26.50;99.90
69418;DHT22;56610;48.872;2.400;2023-07-24T15:14:35;26.50;99.90
69418;DHT22;56610;48.872;2.400;2023-07-24T15:17:01;26.50;99.90
69418;DHT22;56610;48.872;2.400;2023-07-24T15:19:26;26.50;99.90
69418;DHT22;56610;48.872;2.400;2023-07-24T15:21:52;26.40;99.90
69418;DHT22;56610;48.872;2.400;2023-07-24T15:24:17;26.30;99.90
69418;DHT22;56610;48.872;2.400;2023-07-24T15:26:46;26.20;99.90
69418;DHT22;56610;48.872;2.400;2023-07-24T15:29:13;26.10;99.90
69418;DHT22;56610;48.872;2.400;2023-07-24T15:31:40;26.00;99.90
69418;DHT22;56610;48.872;2.400;2023-07-24T15:34:06;25.90;99.90
69418;DHT22;56610;48.872;2.400;2023-07-24T15:36:33;25.70;99.90
69418;DHT22;56610;48.872;2.400;2023-07-24T15:38:59;25.70;99.90
69418;DHT22;56610;48.872;2.400;2023-07-24T15:41:24;25.50;99.90
69418;DHT22;56610;48.872;2.400;2023-07-24T15:43:50;25.10;99.90